Time;durP1;ratioP1;P1;durP2;ratioP2;P2;SDS_P1;SDS_P2;PMS_P1;PMS_P2;Temp;Humidity;BMP_temperature;BMP_pressure;BME280_temperature;BME280_humidity;BME280_pressure;Samples;Min_cycle;Max_cycle;Signal;HPM_P1;HPM_P2
2021/08/29 00:01:23;;;;;;;25.98;14.80;;;11.00;99.90;;;;;;5137908;27;20488;-79
2021/08/29 00:03:49;;;;;;;26.13;16.15;;;11.00;99.90;;;;;;5146925;27;20182;-79
2021/08/29 00:06:14;;;;;;;27.75;15.32;;;10.90;99.90;;;;;;5039567;28;20037;-80
2021/08/29 00:08:40;;;;;;;21.50;14.35;;;10.90;99.90;;;;;;5041748;27;20127;-79
2021/08/29 00:11:06;;;;;;;16.13;11.38;;;10.90;99.90;;;;;;5071168;28;20033;-79
2021/08/29 00:13:31;;;;;;;18.95;12.18;;;10.90;99.90;;;;;;5053211;28;20029;-79
2021/08/29 00:15:57;;;;;;;17.02;12.68;;;11.00;99.90;;;;;;5071730;28;20037;-79
2021/08/29 00:18:22;;;;;;;18.80;11.52;;;10.90;99.90;;;;;;5072150;27;20045;-79
2021/08/29 00:20:48;;;;;;;17.90;11.55;;;10.90;99.90;;;;;;5072214;27;20494;-79
2021/08/29 00:23:14;;;;;;;13.30;10.63;;;11.00;99.90;;;;;;5078602;27;20040;-79
2021/08/29 00:25:40;;;;;;;16.77;11.10;;;11.00;99.90;;;;;;5053637;28;20112;-79
2021/08/29 00:28:05;;;;;;;13.43;9.88;;;11.00;99.90;;;;;;5070339;28;20092;-79
2021/08/29 00:30:31;;;;;;;19.85;13.63;;;11.00;99.90;;;;;;5131835;27;20039;-79
2021/08/29 00:32:56;;;;;;;21.10;13.73;;;11.00;99.90;;;;;;5071519;28;20040;-80
2021/08/29 00:35:22;;;;;;;21.10;12.88;;;10.90;99.90;;;;;;5059094;27;20109;-79
2021/08/29 00:37:48;;;;;;;20.48;13.18;;;10.90;99.90;;;;;;5056198;27;20085;-79
2021/08/29 00:40:18;;;;;;;23.90;14.52;;;10.90;99.90;;;;;;5158617;27;20387;-79
2021/08/29 00:42:49;;;;;;;20.42;13.85;;;10.90;99.90;;;;;;5158424;27;20022;-79
2021/08/29 00:45:14;;;;;;;22.02;13.13;;;10.80;99.90;;;;;;5086576;27;20044;-80
2021/08/29 00:47:40;;;;;;;21.60;13.00;;;10.80;99.90;;;;;;5081930;27;20051;-80
2021/08/29 00:50:06;;;;;;;22.48;13.40;;;10.80;99.90;;;;;;5062301;28;20398;-80
2021/08/29 00:52:39;;;;;;;21.10;13.68;;;10.80;99.90;;;;;;5048346;27;20456;-80
2021/08/29 00:55:09;;;;;;;20.60;14.32;;;10.80;99.90;;;;;;5033484;28;20116;-80
2021/08/29 00:57:34;;;;;;;19.73;14.10;;;10.70;99.90;;;;;;5051060;28;20021;-80
2021/08/29 01:00:00;;;;;;;25.38;16.05;;;10.70;99.90;;;;;;5107846;27;20049;-80
2021/08/29 01:02:27;;;;;;;26.67;15.63;;;10.70;99.90;;;;;;5176803;27;20046;-80
2021/08/29 01:05:08;;;;;;;20.98;13.80;;;10.70;99.90;;;;;;5087751;27;20051;-80
2021/08/29 01:07:57;;;;;;;19.55;12.73;;;10.80;99.90;;;;;;5071344;27;20033;-80
2021/08/29 01:10:33;;;;;;;22.83;14.00;;;10.80;99.90;;;;;;5070977;28;20483;-80
2021/08/29 01:13:00;;;;;;;20.80;14.70;;;10.80;99.90;;;;;;5052990;28;20024;-80
2021/08/29 01:15:28;;;;;;;25.38;15.55;;;10.80;99.90;;;;;;5052892;28;20513;-80
2021/08/29 01:17:57;;;;;;;23.52;14.85;;;10.80;99.90;;;;;;5122357;27;20034;-80
2021/08/29 01:20:37;;;;;;;24.10;15.52;;;10.70;99.90;;;;;;5176299;27;20026;-80
2021/08/29 01:23:06;;;;;;;19.00;14.88;;;10.70;99.90;;;;;;5126535;27;20481;-80
2021/08/29 01:25:35;;;;;;;22.00;14.52;;;10.70;99.90;;;;;;5068996;27;20028;-79
2021/08/29 01:28:15;;;;;;;21.88;16.10;;;10.70;99.90;;;;;;5055296;28;20029;-79
2021/08/29 01:30:45;;;;;;;24.25;16.08;;;10.70;99.90;;;;;;5063180;27;20032;-79
2021/08/29 01:33:13;;;;;;;27.50;14.40;;;10.70;99.90;;;;;;5059088;27;20533;-79
2021/08/29 01:35:40;;;;;;;21.60;15.88;;;10.80;99.90;;;;;;5070451;28;20028;-79
2021/08/29 01:38:07;;;;;;;23.08;15.00;;;10.80;99.90;;;;;;5069805;27;20044;-79
2021/08/29 01:40:34;;;;;;;24.08;15.55;;;10.80;99.90;;;;;;5038161;28;20026;-80
2021/08/29 01:43:02;;;;;;;24.83;13.82;;;10.80;99.90;;;;;;5050434;28;20039;-80
2021/08/29 01:45:29;;;;;;;21.05;12.95;;;10.80;99.90;;;;;;5050516;28;20571;-79
2021/08/29 01:47:56;;;;;;;19.23;13.32;;;10.80;99.90;;;;;;5050561;28;20056;-79
2021/08/29 01:50:23;;;;;;;19.20;13.15;;;10.80;99.90;;;;;;5095617;27;20040;-80
2021/08/29 01:52:48;;;;;;;19.70;12.80;;;10.80;99.90;;;;;;5070286;27;20516;-80
2021/08/29 01:55:14;;;;;;;17.80;12.98;;;10.80;99.90;;;;;;5070783;27;20029;-80
2021/08/29 01:57:40;;;;;;;18.70;13.00;;;10.80;99.90;;;;;;5034715;28;20029;-79
2021/08/29 02:00:06;;;;;;;18.55;13.35;;;10.80;99.90;;;;;;5092117;27;20041;-79
2021/08/29 02:02:32;;;;;;;18.23;12.88;;;10.80;99.90;;;;;;5128268;27;20033;-79
2021/08/29 02:04:58;;;;;;;20.08;12.80;;;10.80;99.90;;;;;;5060106;28;20051;-79
2021/08/29 02:07:24;;;;;;;18.88;12.82;;;10.80;99.90;;;;;;5040725;28;20033;-79
2021/08/29 02:10:02;;;;;;;17.45;13.13;;;10.80;99.90;;;;;;5032571;28;20109;-79
2021/08/29 02:12:32;;;;;;;20.63;13.48;;;10.70;99.90;;;;;;5057043;28;20039;-79
2021/08/29 02:15:24;;;;;;;18.20;12.52;;;10.70;99.90;;;;;;5048275;27;20046;-79
2021/08/29 02:17:51;;;;;;;19.75;11.55;;;10.70;99.90;;;;;;5048075;27;20048;-79
2021/08/29 02:20:22;;;;;;;20.33;14.13;;;10.70;99.90;;;;;;5039288;28;20033;-79
2021/08/29 02:22:48;;;;;;;23.17;14.65;;;10.70;99.90;;;;;;5051006;28;20029;-79
2021/08/29 02:25:14;;;;;;;17.27;12.30;;;10.70;99.90;;;;;;5031791;28;20037;-79
2021/08/29 02:27:41;;;;;;;21.98;14.50;;;10.60;99.90;;;;;;5062624;28;20035;-79
2021/08/29 02:30:08;;;;;;;25.92;16.92;;;10.70;99.90;;;;;;5068428;28;20036;-79
2021/08/29 02:32:38;;;;;;;25.30;16.13;;;10.60;99.90;;;;;;5120659;27;20029;-79
2021/08/29 02:35:06;;;;;;;22.40;15.73;;;10.60;99.90;;;;;;5050671;28;20086;-79
2021/08/29 02:37:32;;;;;;;20.50;14.27;;;10.50;99.90;;;;;;5053092;28;20048;-79
2021/08/29 02:39:59;;;;;;;17.98;12.63;;;10.50;99.90;;;;;;5035490;28;20463;-79
2021/08/29 02:42:29;;;;;;;22.50;15.40;;;10.50;99.90;;;;;;5035604;28;20085;-79
2021/08/29 02:44:55;;;;;;;21.27;14.80;;;10.50;99.90;;;;;;5053042;28;20425;-79
2021/08/29 02:47:21;;;;;;;24.17;14.90;;;10.50;99.90;;;;;;5053210;28;20036;-80
2021/08/29 02:49:49;;;;;;;22.08;14.30;;;10.50;99.90;;;;;;5058830;28;20060;-80
2021/08/29 02:52:19;;;;;;;21.15;13.82;;;10.50;99.90;;;;;;5044742;28;20032;-79
2021/08/29 02:54:48;;;;;;;21.15;14.35;;;10.60;99.90;;;;;;5047787;28;20394;-79
2021/08/29 02:57:15;;;;;;;21.42;14.80;;;10.60;99.90;;;;;;5046263;28;20464;-80
2021/08/29 02:59:41;;;;;;;21.23;14.43;;;10.70;99.90;;;;;;5071685;28;20033;-79
2021/08/29 03:02:11;;;;;;;19.55;14.30;;;10.60;99.90;;;;;;5056815;28;20119;-79
2021/08/29 03:04:38;;;;;;;21.95;13.50;;;10.70;99.90;;;;;;5052803;28;20047;-79
2021/08/29 03:07:04;;;;;;;19.15;13.02;;;10.70;99.90;;;;;;5052759;28;20148;-79
2021/08/29 03:09:35;;;;;;;19.35;14.30;;;10.70;99.90;;;;;;5052683;28;20037;-79
2021/08/29 03:12:10;;;;;;;19.10;12.43;;;10.70;99.90;;;;;;5034848;28;20049;-79
2021/08/29 03:14:40;;;;;;;21.67;14.55;;;10.70;99.90;;;;;;5052673;28;20102;-79
2021/08/29 03:17:07;;;;;;;18.58;12.82;;;10.70;99.90;;;;;;5068636;27;20044;-79
2021/08/29 03:19:33;;;;;;;16.88;11.25;;;10.60;99.90;;;;;;5072664;28;20108;-79
2021/08/29 03:22:00;;;;;;;15.75;11.45;;;10.50;99.90;;;;;;5054727;28;20059;-79
2021/08/29 03:24:26;;;;;;;15.15;11.10;;;10.50;99.90;;;;;;5046094;28;20463;-79
2021/08/29 03:26:52;;;;;;;18.58;11.25;;;10.50;99.90;;;;;;5056103;28;20068;-80
2021/08/29 03:29:19;;;;;;;19.27;12.50;;;10.50;99.90;;;;;;5053997;28;20040;-79
2021/08/29 03:31:45;;;;;;;19.35;11.30;;;10.50;99.90;;;;;;5057428;27;20426;-79
2021/08/29 03:34:13;;;;;;;18.30;11.95;;;10.50;99.90;;;;;;5068640;28;20135;-79
2021/08/29 03:36:42;;;;;;;13.00;10.80;;;10.50;99.90;;;;;;5070596;28;20115;-79
2021/08/29 03:39:10;;;;;;;13.70;10.70;;;10.60;99.90;;;;;;5071409;28;20085;-79
2021/08/29 03:41:39;;;;;;;16.08;11.88;;;10.60;99.90;;;;;;5039878;28;20025;-79
2021/08/29 03:44:06;;;;;;;15.98;10.38;;;10.60;99.90;;;;;;5052293;28;20123;-79
2021/08/29 03:46:32;;;;;;;15.68;10.25;;;10.60;99.90;;;;;;5052011;28;20081;-79
2021/08/29 03:48:58;;;;;;;12.93;10.13;;;10.70;99.90;;;;;;5052266;28;20036;-79
2021/08/29 03:51:25;;;;;;;12.25;9.77;;;10.70;99.90;;;;;;5034269;28;20025;-79
2021/08/29 03:53:51;;;;;;;11.32;8.95;;;10.70;99.90;;;;;;5052172;28;20134;-79
2021/08/29 03:56:18;;;;;;;12.50;8.50;;;10.70;99.90;;;;;;5052124;28;20057;-80
2021/08/29 03:58:44;;;;;;;11.52;9.02;;;10.70;99.90;;;;;;5034194;28;20077;-80
2021/08/29 04:01:10;;;;;;;11.10;8.30;;;10.70;99.90;;;;;;5034150;28;20120;-79
2021/08/29 04:03:36;;;;;;;12.15;8.70;;;10.70;99.90;;;;;;5057762;27;20132;-79
2021/08/29 04:06:03;;;;;;;12.25;10.70;;;10.70;99.90;;;;;;5053718;28;20025;-80
2021/08/29 04:08:35;;;;;;;14.45;10.80;;;10.60;99.90;;;;;;5065609;28;20037;-80
2021/08/29 04:11:02;;;;;;;12.57;8.68;;;10.60;99.90;;;;;;5064841;28;20457;-80
2021/08/29 04:13:30;;;;;;;12.90;10.48;;;10.60;99.90;;;;;;5053883;28;20075;-79
2021/08/29 04:15:56;;;;;;;14.95;9.60;;;10.60;99.90;;;;;;5046196;28;20068;-79
2021/08/29 04:18:23;;;;;;;13.02;10.18;;;10.60;99.90;;;;;;5051669;28;20033;-79
2021/08/29 04:20:49;;;;;;;14.35;10.52;;;10.50;99.90;;;;;;5041715;28;20064;-80
2021/08/29 04:23:16;;;;;;;14.63;10.57;;;10.50;99.90;;;;;;5061953;28;20509;-80
2021/08/29 04:25:42;;;;;;;12.60;10.45;;;10.50;99.90;;;;;;5061851;28;20545;-79
2021/08/29 04:28:08;;;;;;;11.30;9.07;;;10.50;99.90;;;;;;5060859;28;20105;-79
2021/08/29 04:30:34;;;;;;;14.85;8.88;;;10.60;99.90;;;;;;5043293;28;20025;-79
2021/08/29 04:32:59;;;;;;;15.57;10.25;;;10.60;99.90;;;;;;5040376;28;20473;-79
2021/08/29 04:35:25;;;;;;;14.18;9.77;;;10.60;99.90;;;;;;5044075;28;20501;-79
2021/08/29 04:37:51;;;;;;;11.45;9.20;;;10.60;99.90;;;;;;5058807;28;20039;-80
2021/08/29 04:40:17;;;;;;;12.65;9.43;;;10.50;99.90;;;;;;5048686;28;20032;-79
2021/08/29 04:42:43;;;;;;;11.75;9.25;;;10.60;99.90;;;;;;5042994;28;20065;-79
2021/08/29 04:45:09;;;;;;;12.73;9.43;;;10.60;99.90;;;;;;5065053;28;20057;-79
2021/08/29 04:47:35;;;;;;;12.77;9.63;;;10.60;99.90;;;;;;5064147;28;20385;-79
2021/08/29 04:50:01;;;;;;;11.07;9.07;;;10.60;99.90;;;;;;5058504;28;20037;-79
2021/08/29 04:52:27;;;;;;;12.07;9.55;;;10.60;99.90;;;;;;5062163;28;20496;-79
2021/08/29 04:54:52;;;;;;;13.63;9.40;;;10.70;99.90;;;;;;5049126;28;20040;-79
2021/08/29 04:57:18;;;;;;;16.05;10.73;;;10.70;99.90;;;;;;5043613;28;20112;-79
2021/08/29 04:59:44;;;;;;;9.93;8.27;;;10.70;99.90;;;;;;5061775;28;20389;-79
2021/08/29 05:02:09;;;;;;;11.50;9.93;;;10.70;99.90;;;;;;5044131;28;20025;-79
2021/08/29 05:04:35;;;;;;;12.52;8.85;;;10.70;99.90;;;;;;5061454;28;20447;-80
2021/08/29 05:07:02;;;;;;;8.88;7.50;;;10.70;99.90;;;;;;5057142;28;20044;-79
2021/08/29 05:09:27;;;;;;;11.30;8.45;;;10.70;99.90;;;;;;5058594;28;20114;-79
2021/08/29 05:11:53;;;;;;;13.18;8.82;;;10.80;99.90;;;;;;5056866;28;20063;-79
2021/08/29 05:14:19;;;;;;;11.00;8.07;;;10.80;99.90;;;;;;5051561;28;20028;-79
2021/08/29 05:16:44;;;;;;;8.82;7.90;;;10.80;99.90;;;;;;5048904;28;20032;-79
2021/08/29 05:19:10;;;;;;;9.13;7.93;;;10.80;99.90;;;;;;5061938;28;20029;-79
2021/08/29 05:21:35;;;;;;;8.95;7.57;;;10.80;99.90;;;;;;5060019;28;20037;-79
2021/08/29 05:24:01;;;;;;;12.38;7.57;;;10.80;99.90;;;;;;5043999;28;20050;-79
2021/08/29 05:26:27;;;;;;;8.30;7.50;;;10.80;99.90;;;;;;5059373;28;20060;-79
2021/08/29 05:28:52;;;;;;;11.00;9.65;;;10.90;99.90;;;;;;5048724;28;20021;-79
2021/08/29 05:31:18;;;;;;;10.48;7.82;;;11.00;99.90;;;;;;5058382;28;20040;-79
2021/08/29 05:33:44;;;;;;;11.73;10.50;;;11.00;99.90;;;;;;5065953;27;20037;-79
2021/08/29 05:36:09;;;;;;;13.50;9.98;;;11.00;99.90;;;;;;5045310;27;20418;-79
2021/08/29 05:38:35;;;;;;;12.32;9.70;;;11.00;99.90;;;;;;5055647;28;20029;-79
2021/08/29 05:41:00;;;;;;;12.68;9.90;;;11.10;99.90;;;;;;5039296;28;20500;-79
2021/08/29 05:43:26;;;;;;;12.82;10.38;;;11.10;99.90;;;;;;5056818;28;20082;-79
2021/08/29 05:45:52;;;;;;;15.40;10.68;;;11.30;99.90;;;;;;5044366;28;20039;-79
2021/08/29 05:48:17;;;;;;;11.35;9.63;;;11.30;99.90;;;;;;5061782;28;20038;-79
2021/08/29 05:50:43;;;;;;;13.02;9.90;;;11.30;99.90;;;;;;5064291;28;20443;-79
2021/08/29 05:53:08;;;;;;;12.10;10.10;;;11.40;99.90;;;;;;5062640;28;20051;-80
2021/08/29 05:55:34;;;;;;;13.55;9.90;;;11.40;99.90;;;;;;5059952;28;20490;-80
2021/08/29 05:58:00;;;;;;;11.70;9.27;;;11.40;99.90;;;;;;5046852;28;20389;-79
2021/08/29 06:00:25;;;;;;;14.30;10.10;;;11.50;99.90;;;;;;5047734;28;20029;-78
2021/08/29 06:02:51;;;;;;;13.07;10.82;;;11.50;99.90;;;;;;5058493;28;20045;-79
2021/08/29 06:05:17;;;;;;;19.60;12.52;;;11.60;99.90;;;;;;5059685;28;20555;-79
2021/08/29 06:07:42;;;;;;;21.95;13.05;;;11.60;99.90;;;;;;5059794;28;20029;-79
2021/08/29 06:10:11;;;;;;;20.40;13.13;;;11.70;99.90;;;;;;5065264;28;20093;-79
2021/08/29 06:12:37;;;;;;;19.90;13.25;;;11.90;99.90;;;;;;5042937;27;20045;-79
2021/08/29 06:15:04;;;;;;;19.50;12.75;;;12.00;99.90;;;;;;5043340;28;20029;-79
2021/08/29 06:17:29;;;;;;;20.77;12.70;;;12.10;99.90;;;;;;5039042;27;20033;-80
2021/08/29 06:19:55;;;;;;;22.05;12.45;;;12.20;99.90;;;;;;5038129;28;20584;-80
2021/08/29 06:22:21;;;;;;;23.63;13.80;;;12.20;99.90;;;;;;5058625;28;20018;-80
2021/08/29 06:24:46;;;;;;;18.27;12.27;;;12.40;99.90;;;;;;5058258;28;20044;-80
2021/08/29 06:27:12;;;;;;;19.77;11.23;;;12.50;99.90;;;;;;5061932;28;20100;-80
2021/08/29 06:29:38;;;;;;;16.70;12.10;;;12.60;99.90;;;;;;5042231;27;20037;-80
2021/08/29 06:32:04;;;;;;;25.20;11.98;;;12.70;99.90;;;;;;5055666;28;20056;-80
2021/08/29 06:34:29;;;;;;;16.95;11.27;;;12.80;99.90;;;;;;5043559;28;20033;-80
2021/08/29 06:36:55;;;;;;;18.50;10.98;;;12.90;99.90;;;;;;5061878;28;20111;-80
2021/08/29 06:39:21;;;;;;;18.08;11.23;;;13.00;99.90;;;;;;5057280;28;20447;-77
2021/08/29 06:41:46;;;;;;;17.08;12.25;;;13.10;99.90;;;;;;5058387;28;20498;-80
2021/08/29 06:44:12;;;;;;;24.45;12.05;;;13.20;99.90;;;;;;5057224;28;20048;-80
2021/08/29 06:46:38;;;;;;;16.77;11.63;;;13.30;99.90;;;;;;5048968;27;20077;-80
2021/08/29 06:49:03;;;;;;;17.95;11.15;;;13.40;99.90;;;;;;5045553;28;20044;-80
2021/08/29 06:51:29;;;;;;;13.52;9.63;;;13.50;99.90;;;;;;5067346;28;20734;-80
2021/08/29 06:53:55;;;;;;;16.15;9.68;;;13.60;99.90;;;;;;5066180;28;20043;-80
2021/08/29 06:56:20;;;;;;;12.70;9.25;;;13.70;99.90;;;;;;5065780;28;20028;-80
2021/08/29 06:58:46;;;;;;;13.63;8.93;;;13.70;99.90;;;;;;5050453;28;20040;-80
2021/08/29 07:01:12;;;;;;;11.35;8.10;;;13.90;99.90;;;;;;5054608;28;20381;-80
2021/08/29 07:03:37;;;;;;;13.98;9.05;;;14.00;99.90;;;;;;5065555;28;20039;-80
2021/08/29 07:06:06;;;;;;;11.77;8.98;;;14.10;99.90;;;;;;5063688;28;20036;-80
2021/08/29 07:08:32;;;;;;;11.40;8.57;;;14.20;99.90;;;;;;5063028;28;20478;-80
2021/08/29 07:10:58;;;;;;;12.15;9.13;;;14.30;99.90;;;;;;5054342;28;20024;-80
2021/08/29 07:13:23;;;;;;;12.85;9.05;;;14.30;99.90;;;;;;5064202;27;20510;-80
2021/08/29 07:15:49;;;;;;;9.88;8.88;;;14.30;99.90;;;;;;5066187;28;20036;-80
2021/08/29 07:18:14;;;;;;;10.32;7.90;;;14.40;99.90;;;;;;5043533;27;20132;-80
2021/08/29 07:20:40;;;;;;;12.55;8.38;;;14.30;99.90;;;;;;5067418;28;20060;-80
2021/08/29 07:23:06;;;;;;;8.95;7.38;;;14.30;99.90;;;;;;5069771;28;20037;-81
2021/08/29 07:25:31;;;;;;;10.55;8.18;;;14.30;99.90;;;;;;5070237;28;20085;-79
2021/08/29 07:28:00;;;;;;;9.35;7.63;;;14.40;99.90;;;;;;5046482;28;20473;-80
2021/08/29 07:30:26;;;;;;;9.65;7.70;;;14.40;99.90;;;;;;5068405;28;20037;-80
2021/08/29 07:32:51;;;;;;;12.85;8.27;;;14.50;99.90;;;;;;5062745;27;20051;-80
2021/08/29 07:35:17;;;;;;;9.73;7.55;;;14.60;99.90;;;;;;5052075;28;20035;-81
2021/08/29 07:37:43;;;;;;;13.50;10.38;;;14.70;99.90;;;;;;5058023;27;20053;-80
2021/08/29 07:40:09;;;;;;;14.98;11.07;;;14.80;99.90;;;;;;5058385;27;20043;-80
2021/08/29 07:42:35;;;;;;;13.65;10.05;;;14.90;99.90;;;;;;5051334;28;20068;-80
2021/08/29 07:45:00;;;;;;;12.57;9.30;;;15.00;99.90;;;;;;5044412;28;20072;-80
2021/08/29 07:47:26;;;;;;;8.15;7.35;;;15.00;99.90;;;;;;5032879;28;20030;-80
2021/08/29 07:49:52;;;;;;;9.43;7.60;;;15.10;99.90;;;;;;5067639;28;20040;-80
2021/08/29 07:52:17;;;;;;;7.85;6.82;;;15.20;99.90;;;;;;5068522;28;20033;-82
2021/08/29 07:54:43;;;;;;;8.25;6.30;;;15.20;99.90;;;;;;5066381;27;20066;-80
2021/08/29 07:57:09;;;;;;;8.55;6.78;;;15.20;99.90;;;;;;5069051;28;20036;-81
2021/08/29 07:59:35;;;;;;;6.97;6.32;;;15.30;99.90;;;;;;5039836;28;20033;-81
2021/08/29 08:02:00;;;;;;;7.07;6.40;;;15.30;99.90;;;;;;5046673;28;20040;-81
2021/08/29 08:04:26;;;;;;;9.55;7.60;;;15.40;99.90;;;;;;5069940;28;20049;-81
2021/08/29 08:06:52;;;;;;;10.65;8.90;;;15.40;99.90;;;;;;5042977;28;20424;-80
2021/08/29 08:09:17;;;;;;;10.70;9.30;;;15.40;99.90;;;;;;5044096;28;20038;-80
2021/08/29 08:11:43;;;;;;;12.07;9.35;;;15.40;99.90;;;;;;5048416;28;20416;-80
2021/08/29 08:14:09;;;;;;;10.75;8.70;;;15.40;99.90;;;;;;5066957;27;20033;-80
2021/08/29 08:16:34;;;;;;;8.02;6.90;;;15.40;99.90;;;;;;5050719;28;20032;-80
2021/08/29 08:19:00;;;;;;;9.38;6.00;;;15.30;99.90;;;;;;5036456;28;20116;-81
2021/08/29 08:21:26;;;;;;;10.55;6.60;;;15.20;99.90;;;;;;5048876;28;20025;-82
2021/08/29 08:23:51;;;;;;;13.25;7.20;;;15.10;99.90;;;;;;5047704;28;20041;-81
2021/08/29 08:26:17;;;;;;;7.40;6.70;;;15.00;99.90;;;;;;5032753;28;20029;-81
2021/08/29 08:28:42;;;;;;;11.00;7.80;;;14.90;99.90;;;;;;5025969;28;20038;-81
2021/08/29 08:31:08;;;;;;;7.47;6.43;;;14.90;99.90;;;;;;5049376;28;20044;-81
2021/08/29 08:33:34;;;;;;;8.65;6.20;;;15.00;99.90;;;;;;5040961;28;20479;-81
2021/08/29 08:35:59;;;;;;;7.78;7.07;;;15.00;99.90;;;;;;5044440;28;20448;-81
2021/08/29 08:38:25;;;;;;;9.85;7.82;;;15.10;99.90;;;;;;5053521;28;20025;-81
2021/08/29 08:40:51;;;;;;;10.32;7.57;;;15.20;99.90;;;;;;5057404;28;20048;-80
2021/08/29 08:43:16;;;;;;;7.78;6.97;;;15.20;99.90;;;;;;5036177;28;20078;-80
2021/08/29 08:45:46;;;;;;;8.65;7.75;;;15.30;99.90;;;;;;5030909;28;20033;-79
2021/08/29 08:48:12;;;;;;;6.82;6.13;;;15.40;99.90;;;;;;5046453;28;20506;-80
2021/08/29 08:50:43;;;;;;;10.95;7.50;;;15.50;99.90;;;;;;5031560;28;20033;-80
2021/08/29 08:53:08;;;;;;;7.15;6.38;;;15.70;99.90;;;;;;5048588;28;20021;-80
2021/08/29 08:55:36;;;;;;;7.10;6.40;;;15.70;99.90;;;;;;5030757;28;20577;-81
2021/08/29 08:58:02;;;;;;;7.63;6.15;;;15.80;99.90;;;;;;5024177;28;20044;-80
2021/08/29 09:00:28;;;;;;;8.93;7.30;;;15.90;99.90;;;;;;5011572;28;20033;-80
2021/08/29 09:02:55;;;;;;;6.55;5.43;;;16.10;99.90;;;;;;5054567;28;20051;-81
2021/08/29 09:05:24;;;;;;;7.18;5.38;;;16.20;99.90;;;;;;5055384;28;20049;-81
2021/08/29 09:07:51;;;;;;;5.15;4.65;;;16.40;99.90;;;;;;5041442;28;20107;-80
2021/08/29 09:10:16;;;;;;;3.35;3.03;;;16.50;99.90;;;;;;5044962;28;20041;-81
2021/08/29 09:13:12;;;;;;;4.35;3.50;;;16.50;99.90;;;;;;5015956;28;20032;-81
2021/08/29 09:15:37;;;;;;;3.00;2.70;;;16.80;99.90;;;;;;5018605;28;20048;-80
2021/08/29 09:18:03;;;;;;;3.58;3.28;;;16.90;99.90;;;;;;5023701;27;20037;-80
2021/08/29 09:20:38;;;;;;;5.28;3.95;;;16.90;99.90;;;;;;5034464;28;20098;-81
2021/08/29 09:23:09;;;;;;;5.10;4.57;;;17.00;99.90;;;;;;5030597;28;20061;-81
2021/08/29 09:25:40;;;;;;;5.72;4.47;;;17.20;99.90;;;;;;5032693;28;20048;-81
2021/08/29 09:28:12;;;;;;;4.88;4.45;;;17.40;99.90;;;;;;5033810;27;20058;-81
2021/08/29 09:30:47;;;;;;;5.63;4.50;;;17.30;99.90;;;;;;5035624;28;20063;-80
2021/08/29 09:33:14;;;;;;;6.35;4.57;;;17.30;99.90;;;;;;5044994;27;20044;-81
2021/08/29 09:35:40;;;;;;;7.15;5.18;;;17.50;99.90;;;;;;5038868;27;20037;-81
2021/08/29 09:38:10;;;;;;;5.10;4.70;;;17.60;99.90;;;;;;5034350;28;20498;-81
2021/08/29 09:40:37;;;;;;;5.45;4.75;;;17.80;99.90;;;;;;5038397;28;20104;-82
2021/08/29 09:43:06;;;;;;;8.05;4.78;;;17.80;99.90;;;;;;5033256;28;20086;-82
2021/08/29 09:45:40;;;;;;;9.13;5.50;;;17.90;99.90;;;;;;5036824;28;20053;-82
2021/08/29 09:48:12;;;;;;;5.57;4.97;;;18.10;99.90;;;;;;5040108;28;20682;-82
2021/08/29 09:50:41;;;;;;;7.80;5.70;;;18.00;99.90;;;;;;5036472;28;20120;-82
2021/08/29 09:53:11;;;;;;;7.95;5.22;;;18.00;99.90;;;;;;5033093;28;20417;-82
2021/08/29 09:55:37;;;;;;;5.88;4.63;;;17.80;99.90;;;;;;5034707;28;20124;-82
2021/08/29 09:58:22;;;;;;;5.47;4.97;;;17.60;99.90;;;;;;5034038;28;20147;-81
2021/08/29 10:01:13;;;;;;;6.35;5.13;;;17.50;99.90;;;;;;5033617;28;20034;-82
2021/08/29 10:03:50;;;;;;;5.15;4.53;;;17.30;99.90;;;;;;5035756;28;20045;-82
2021/08/29 10:06:22;;;;;;;5.60;4.40;;;17.30;99.90;;;;;;5040628;28;20172;-82
2021/08/29 10:08:53;;;;;;;5.38;4.45;;;17.20;99.90;;;;;;5037695;28;20100;-82
2021/08/29 10:11:20;;;;;;;6.43;5.32;;;17.20;99.90;;;;;;5039472;28;20041;-82
2021/08/29 10:13:46;;;;;;;6.38;5.72;;;17.10;99.90;;;;;;5035939;27;20064;-81
2021/08/29 10:16:13;;;;;;;8.63;6.55;;;17.20;99.90;;;;;;5038147;28;20063;-81
2021/08/29 10:18:45;;;;;;;5.88;5.38;;;17.30;99.90;;;;;;5052049;27;20097;-82
2021/08/29 10:21:13;;;;;;;8.27;6.15;;;17.50;99.90;;;;;;5056082;28;20047;-82
2021/08/29 10:23:45;;;;;;;7.28;6.07;;;17.70;99.90;;;;;;5039283;28;20139;-82
2021/08/29 10:26:12;;;;;;;7.07;5.80;;;18.00;99.90;;;;;;5039288;28;20494;-82
2021/08/29 10:28:43;;;;;;;7.90;6.05;;;18.20;99.90;;;;;;5057839;28;20474;-83
2021/08/29 10:31:15;;;;;;;8.82;6.32;;;18.40;99.90;;;;;;5035130;28;20097;-83
2021/08/29 10:33:47;;;;;;;7.03;5.43;;;18.30;99.90;;;;;;5034419;28;20068;-82
2021/08/29 10:36:17;;;;;;;6.43;5.05;;;18.10;99.90;;;;;;5035432;28;20070;-82
2021/08/29 10:38:44;;;;;;;8.10;5.97;;;18.00;99.90;;;;;;5035542;28;20040;-82
2021/08/29 10:41:11;;;;;;;7.50;5.82;;;18.00;99.90;;;;;;5057782;28;20040;-82
2021/08/29 10:43:39;;;;;;;6.60;5.22;;;18.00;99.90;;;;;;5058434;28;20060;-82
2021/08/29 10:46:08;;;;;;;5.43;5.00;;;18.30;99.90;;;;;;5058326;28;20033;-82
2021/08/29 10:48:36;;;;;;;6.90;5.13;;;18.70;99.90;;;;;;5054590;28;20025;-82
2021/08/29 10:51:03;;;;;;;5.72;4.85;;;18.60;98.60;;;;;;5038674;28;20044;-83
2021/08/29 10:53:35;;;;;;;5.55;4.55;;;18.50;99.90;;;;;;5035155;28;20033;-82
2021/08/29 10:56:15;;;;;;;4.88;4.43;;;18.30;99.90;;;;;;5052094;28;20065;-83
2021/08/29 10:58:45;;;;;;;8.57;4.90;;;18.40;98.50;;;;;;5044920;28;20543;-83
2021/08/29 11:01:40;;;;;;;4.57;4.13;;;18.60;98.10;;;;;;5061056;28;20037;-82
2021/08/29 11:04:17;;;;;;;7.25;5.25;;;19.00;95.00;;;;;;5059294;28;20471;-83
2021/08/29 11:06:54;;;;;;;4.25;3.72;;;18.90;93.60;;;;;;5041854;28;20104;-83
2021/08/29 11:09:40;;;;;;;6.97;4.25;;;18.80;93.60;;;;;;5041671;28;20119;-83
2021/08/29 11:12:15;;;;;;;4.88;4.03;;;19.00;97.20;;;;;;5040759;28;20528;-83
2021/08/29 11:14:52;;;;;;;5.18;4.35;;;18.90;91.60;;;;;;5060872;28;20044;-83
2021/08/29 11:17:25;;;;;;;6.70;3.88;;;18.90;94.80;;;;;;5042649;27;20389;-83
2021/08/29 11:19:53;;;;;;;5.22;4.72;;;19.10;94.60;;;;;;5041255;28;20068;-83
2021/08/29 11:22:24;;;;;;;6.00;4.05;;;19.40;93.10;;;;;;5060818;28;20527;-83
2021/08/29 11:24:56;;;;;;;5.40;4.22;;;19.40;93.00;;;;;;5057104;28;20077;-83
2021/08/29 11:27:33;;;;;;;5.87;4.93;;;19.40;91.90;;;;;;5050592;28;20075;-83
2021/08/29 11:30:09;;;;;;;5.03;4.53;;;19.20;90.90;;;;;;5060293;27;20037;-83
2021/08/29 11:32:56;;;;;;;5.10;4.45;;;19.00;95.60;;;;;;5070700;28;20045;-83
2021/08/29 11:35:22;;;;;;;6.03;5.00;;;18.90;96.50;;;;;;5040052;27;20068;-83
2021/08/29 11:38:09;;;;;;;7.00;5.07;;;18.70;95.90;;;;;;5052325;28;20071;-83
2021/08/29 11:40:49;;;;;;;4.82;3.80;;;18.80;99.30;;;;;;5069819;28;20052;-83
2021/08/29 11:43:15;;;;;;;6.53;4.50;;;19.00;94.60;;;;;;5052015;28;20032;-83
2021/08/29 11:45:42;;;;;;;5.53;4.82;;;19.20;93.70;;;;;;5036157;28;20037;-83
2021/08/29 11:48:08;;;;;;;5.15;4.47;;;19.30;90.60;;;;;;5037669;28;20037;-82
2021/08/29 11:50:33;;;;;;;4.78;4.35;;;19.10;90.10;;;;;;5070469;28;20081;-83
2021/08/29 11:52:59;;;;;;;5.00;4.25;;;19.20;90.40;;;;;;5051582;28;20044;-83
2021/08/29 11:55:25;;;;;;;3.47;3.15;;;19.30;93.00;;;;;;5066505;28;20035;-83
2021/08/29 11:57:53;;;;;;;2.85;2.55;;;19.10;86.80;;;;;;5048547;28;20033;-83
2021/08/29 12:00:23;;;;;;;2.90;2.70;;;18.90;78.40;;;;;;5067932;28;20047;-83
2021/08/29 12:02:53;;;;;;;3.90;3.03;;;18.80;82.80;;;;;;5049272;28;20562;-83
2021/08/29 12:05:20;;;;;;;3.58;3.25;;;18.60;88.60;;;;;;5066869;28;20044;-83
2021/08/29 12:07:51;;;;;;;2.55;2.35;;;18.60;91.60;;;;;;5047940;28;20476;-83
2021/08/29 12:10:18;;;;;;;2.42;2.22;;;18.50;85.80;;;;;;5049918;28;20021;-83
2021/08/29 12:12:46;;;;;;;2.15;2.00;;;18.40;80.90;;;;;;5066377;28;20033;-82
2021/08/29 12:15:13;;;;;;;3.30;2.80;;;18.70;78.40;;;;;;5066362;28;20028;-81
2021/08/29 12:17:40;;;;;;;3.10;2.72;;;18.90;85.20;;;;;;5055240;27;20370;-81
2021/08/29 12:23:27;;;;;;;7.63;2.92;;;19.10;85.30;;;;;;5067303;28;20023;-81
2021/08/29 12:26:02;;;;;;;3.70;3.40;;;19.10;85.80;;;;;;5052390;28;20033;-81
2021/08/29 12:28:29;;;;;;;4.68;3.55;;;19.00;86.90;;;;;;5058276;28;20025;-81
2021/08/29 12:30:56;;;;;;;3.40;3.10;;;18.80;86.10;;;;;;5098544;27;20037;-81
2021/08/29 12:33:23;;;;;;;3.38;2.80;;;18.80;85.90;;;;;;5085949;27;20023;-81
2021/08/29 12:35:50;;;;;;;3.10;2.90;;;18.70;86.50;;;;;;5114601;27;20098;-81
2021/08/29 12:38:29;;;;;;;3.03;2.72;;;18.60;89.00;;;;;;5088633;27;20042;-81
2021/08/29 12:40:57;;;;;;;2.58;2.38;;;18.60;84.50;;;;;;5100441;27;20048;-81
2021/08/29 12:43:28;;;;;;;2.80;2.60;;;18.70;85.50;;;;;;5070885;28;20068;-81